Truth — WYV5559 — position and weather

sailwx.info

Track history (hours):
 
Tides and Currents Weather Stations Pressure Air Temp Water Temp Dewpoint Dewpoint Depression Visibility Wind Speed Wind Dir Waves Ship Positions

Truth

Owner: TRUTH AQUATIES INC, SANTA BARBARA, CA. More information available from US FCC via Universal Licensing System and Coast Guard Vessel Documentation Center.

Last reported at 2016-Jul-29 21:31 UTC. Time now 2016-Jul-29 21:45 UTC.
Position N 34°04' W 119°51'.

Length 22 m.

Type: Diving. MMSI: 367384840.

Date/timePositionNaut miles runAvg speedWind from/ knotsBaromVisibWave heightAir tempDewpointWater temp
2016-Jul-29 21:31N 34°04' W 119°51'0 0.0
2016-Jul-29 20:22N 34°04' W 119°51'2 1.8
2016-Jul-29 19:29N 34°04' W 119°53'0 0.0
2016-Jul-29 18:32N 34°04' W 119°53'3 2.4
2016-Jul-29 17:19N 34°07' W 119°51'17 9.4
2016-Jul-29 15:33N 34°22' W 119°43'3 0.1
2016-Jul-28 18:31N 34°24' W 119°42'0 0.0
2016-Jul-27 02:16N 34°24' W 119°42'0 0.0
2016-Jul-26 19:25N 34°24' W 119°42'0 0.0
2016-Jul-25 23:31N 34°24' W 119°42'3 0.1
2016-Jul-24 23:10N 34°22' W 119°42'810.3
2016-Jul-24 22:26N 34°15' W 119°46'910.6
2016-Jul-24 21:34N 34°07' W 119°52'3 2.3
2016-Jul-24 20:19N 34°04' W 119°53'2 2.8
2016-Jul-24 19:30N 34°04' W 119°56'2 0.3
2016-Jul-24 14:10N 34°03' W 119°58'6 9.0
2016-Jul-24 13:30N 34°09' W 119°55'19 1.3
2016-Jul-23 23:17N 34°24' W 119°42'0 0.2
2016-Jul-23 22:17N 34°24' W 119°42'7 8.8
2016-Jul-23 21:26N 34°17' W 119°41'  
2016-Jul-21 14:19N 34°04' W 119°46'7 7.8
2016-Jul-21 13:25N 34°07' W 119°53'11 9.4
2016-Jul-21 12:14N 34°17' W 119°48'8 0.2
2016-Jul-20 00:11N 34°22' W 119°40'7 9.6
2016-Jul-19 23:29N 34°16' W 119°37'11 9.1
2016-Jul-19 22:15N 34°06' W 119°30'  
Track history (hours):
 
Tides and Currents Weather Stations Pressure Air Temp Water Temp Dewpoint Dewpoint Depression Visibility Wind Speed Wind Dir Waves Ship Positions

Truth

Owner: TRUTH AQUATIES INC, SANTA BARBARA, CA. More information available from US FCC via Universal Licensing System and Coast Guard Vessel Documentation Center.

Last reported at 2016-Jul-29 21:31 UTC. Time now 2016-Jul-29 21:45 UTC.
Position N 34°04' W 119°51'.

Length 22 m.

Type: Diving. MMSI: 367384840.

Date/timePositionNaut miles runAvg speedWind from/ knotsBaromVisibWave heightAir tempDewpointWater temp
2016-Jul-29 21:31N 34°04' W 119°51'0 0.0
2016-Jul-29 20:22N 34°04' W 119°51'2 1.8
2016-Jul-29 19:29N 34°04' W 119°53'0 0.0
2016-Jul-29 18:32N 34°04' W 119°53'3 2.4
2016-Jul-29 17:19N 34°07' W 119°51'17 9.4
2016-Jul-29 15:33N 34°22' W 119°43'3 0.1
2016-Jul-28 18:31N 34°24' W 119°42'0 0.0
2016-Jul-27 02:16N 34°24' W 119°42'0 0.0
2016-Jul-26 19:25N 34°24' W 119°42'0 0.0
2016-Jul-25 23:31N 34°24' W 119°42'3 0.1
2016-Jul-24 23:10N 34°22' W 119°42'810.3
2016-Jul-24 22:26N 34°15' W 119°46'910.6
2016-Jul-24 21:34N 34°07' W 119°52'3 2.3
2016-Jul-24 20:19N 34°04' W 119°53'2 2.8
2016-Jul-24 19:30N 34°04' W 119°56'2 0.3
2016-Jul-24 14:10N 34°03' W 119°58'6 9.0
2016-Jul-24 13:30N 34°09' W 119°55'19 1.3
2016-Jul-23 23:17N 34°24' W 119°42'0 0.2
2016-Jul-23 22:17N 34°24' W 119°42'7 8.8
2016-Jul-23 21:26N 34°17' W 119°41'  
2016-Jul-21 14:19N 34°04' W 119°46'7 7.8
2016-Jul-21 13:25N 34°07' W 119°53'11 9.4
2016-Jul-21 12:14N 34°17' W 119°48'8 0.2
2016-Jul-20 00:11N 34°22' W 119°40'7 9.6
2016-Jul-19 23:29N 34°16' W 119°37'11 9.1
2016-Jul-19 22:15N 34°06' W 119°30'  

Dump ship's entire track history